sensor_id;sensor_type;location;lat;lon;timestamp;temperature;humidity
14409;DHT22;7289;50.706;4.992;2023-07-31T00:02:20;18.00;99.90
14409;DHT22;7289;50.706;4.992;2023-07-31T00:04:49;18.00;99.90
14409;DHT22;7289;50.706;4.992;2023-07-31T00:07:17;18.00;99.90
14409;DHT22;7289;50.706;4.992;2023-07-31T00:09:47;18.00;99.90
14409;DHT22;7289;50.706;4.992;2023-07-31T00:12:15;17.90;99.90
14409;DHT22;7289;50.706;4.992;2023-07-31T00:14:43;18.00;99.90
14409;DHT22;7289;50.706;4.992;2023-07-31T00:17:12;18.10;99.90
14409;DHT22;7289;50.706;4.992;2023-07-31T00:19:40;18.10;99.90
14409;DHT22;7289;50.706;4.992;2023-07-31T00:22:08;18.10;99.90
14409;DHT22;7289;50.706;4.992;2023-07-31T00:24:37;18.20;99.90
14409;DHT22;7289;50.706;4.992;2023-07-31T00:27:06;18.20;99.90
14409;DHT22;7289;50.706;4.992;2023-07-31T00:29:35;18.20;99.90
14409;DHT22;7289;50.706;4.992;2023-07-31T00:32:05;18.20;99.90
14409;DHT22;7289;50.706;4.992;2023-07-31T00:34:33;18.30;99.90
14409;DHT22;7289;50.706;4.992;2023-07-31T00:37:02;18.20;99.90
14409;DHT22;7289;50.706;4.992;2023-07-31T00:39:31;18.20;99.90
14409;DHT22;7289;50.706;4.992;2023-07-31T00:41:59;18.20;99.90
14409;DHT22;7289;50.706;4.992;2023-07-31T00:44:29;18.30;99.90
14409;DHT22;7289;50.706;4.992;2023-07-31T00:46:57;18.30;99.90
14409;DHT22;7289;50.706;4.992;2023-07-31T00:49:26;18.30;99.90
14409;DHT22;7289;50.706;4.992;2023-07-31T00:51:55;18.40;99.90
14409;DHT22;7289;50.706;4.992;2023-07-31T00:54:25;18.40;99.90
14409;DHT22;7289;50.706;4.992;2023-07-31T00:56:54;18.40;99.90
14409;DHT22;7289;50.706;4.992;2023-07-31T00:59:23;18.40;99.90
14409;DHT22;7289;50.706;4.992;2023-07-31T01:01:52;18.30;99.90
14409;DHT22;7289;50.706;4.992;2023-07-31T01:04:21;18.40;99.90
14409;DHT22;7289;50.706;4.992;2023-07-31T01:06:57;18.40;99.90
14409;DHT22;7289;50.706;4.992;2023-07-31T01:09:34;18.40;99.90
14409;DHT22;7289;50.706;4.992;2023-07-31T01:12:07;18.30;99.90
14409;DHT22;7289;50.706;4.992;2023-07-31T01:14:35;18.40;99.90
14409;DHT22;7289;50.706;4.992;2023-07-31T01:17:05;18.40;99.90
14409;DHT22;7289;50.706;4.992;2023-07-31T01:19:34;18.40;99.90
14409;DHT22;7289;50.706;4.992;2023-07-31T01:25:05;18.40;99.90
14409;DHT22;7289;50.706;4.992;2023-07-31T01:27:46;18.50;99.90
14409;DHT22;7289;50.706;4.992;2023-07-31T01:30:22;18.50;99.90
14409;DHT22;7289;50.706;4.992;2023-07-31T01:32:53;18.40;99.90
14409;DHT22;7289;50.706;4.992;2023-07-31T01:35:23;18.40;99.90
14409;DHT22;7289;50.706;4.992;2023-07-31T01:37:52;18.40;99.90
14409;DHT22;7289;50.706;4.992;2023-07-31T01:40:21;18.40;99.90
14409;DHT22;7289;50.706;4.992;2023-07-31T01:42:51;18.40;99.90
14409;DHT22;7289;50.706;4.992;2023-07-31T01:45:19;18.40;99.90
14409;DHT22;7289;50.706;4.992;2023-07-31T01:47:47;18.40;99.90
14409;DHT22;7289;50.706;4.992;2023-07-31T01:50:16;18.40;99.90
14409;DHT22;7289;50.706;4.992;2023-07-31T01:52:45;18.40;99.90
14409;DHT22;7289;50.706;4.992;2023-07-31T01:55:13;18.40;99.90
14409;DHT22;7289;50.706;4.992;2023-07-31T01:57:42;18.40;99.90
14409;DHT22;7289;50.706;4.992;2023-07-31T02:00:13;18.40;99.90
14409;DHT22;7289;50.706;4.992;2023-07-31T02:02:41;18.40;99.90
14409;DHT22;7289;50.706;4.992;2023-07-31T02:05:09;18.40;99.90
14409;DHT22;7289;50.706;4.992;2023-07-31T02:07:38;18.40;99.90
14409;DHT22;7289;50.706;4.992;2023-07-31T02:10:06;18.40;99.90
14409;DHT22;7289;50.706;4.992;2023-07-31T02:12:35;18.40;99.90
14409;DHT22;7289;50.706;4.992;2023-07-31T02:15:05;18.30;99.90
14409;DHT22;7289;50.706;4.992;2023-07-31T02:17:36;18.30;99.90
14409;DHT22;7289;50.706;4.992;2023-07-31T02:20:05;18.30;99.90
14409;DHT22;7289;50.706;4.992;2023-07-31T02:22:34;18.40;99.90
14409;DHT22;7289;50.706;4.992;2023-07-31T02:25:02;18.40;99.90
14409;DHT22;7289;50.706;4.992;2023-07-31T02:27:31;18.30;99.90
14409;DHT22;7289;50.706;4.992;2023-07-31T02:29:59;18.30;99.90
14409;DHT22;7289;50.706;4.992;2023-07-31T02:32:28;18.30;99.90
14409;DHT22;7289;50.706;4.992;2023-07-31T02:34:57;18.20;99.90
14409;DHT22;7289;50.706;4.992;2023-07-31T02:37:26;18.20;99.90
14409;DHT22;7289;50.706;4.992;2023-07-31T02:39:55;18.20;99.90
14409;DHT22;7289;50.706;4.992;2023-07-31T02:42:26;18.10;99.90
14409;DHT22;7289;50.706;4.992;2023-07-31T02:44:54;18.20;99.90
14409;DHT22;7289;50.706;4.992;2023-07-31T02:47:23;18.30;99.90
14409;DHT22;7289;50.706;4.992;2023-07-31T02:49:52;18.20;99.90
14409;DHT22;7289;50.706;4.992;2023-07-31T02:52:22;18.20;99.90
14409;DHT22;7289;50.706;4.992;2023-07-31T02:54:50;18.30;99.90
14409;DHT22;7289;50.706;4.992;2023-07-31T02:57:18;18.30;99.90
14409;DHT22;7289;50.706;4.992;2023-07-31T02:59:47;18.30;99.90
14409;DHT22;7289;50.706;4.992;2023-07-31T03:02:15;18.40;99.90
14409;DHT22;7289;50.706;4.992;2023-07-31T03:04:44;18.30;99.90
14409;DHT22;7289;50.706;4.992;2023-07-31T03:07:12;18.30;99.90
14409;DHT22;7289;50.706;4.992;2023-07-31T03:09:42;18.30;99.90
14409;DHT22;7289;50.706;4.992;2023-07-31T03:12:10;18.30;99.90
14409;DHT22;7289;50.706;4.992;2023-07-31T03:14:38;18.30;99.90
14409;DHT22;7289;50.706;4.992;2023-07-31T03:17:07;18.30;99.90
14409;DHT22;7289;50.706;4.992;2023-07-31T03:19:35;18.30;99.90
14409;DHT22;7289;50.706;4.992;2023-07-31T03:22:04;18.30;99.90
14409;DHT22;7289;50.706;4.992;2023-07-31T03:24:33;18.30;99.90
14409;DHT22;7289;50.706;4.992;2023-07-31T03:27:03;18.30;99.90
14409;DHT22;7289;50.706;4.992;2023-07-31T03:29:31;18.20;99.90
14409;DHT22;7289;50.706;4.992;2023-07-31T03:32:00;18.20;99.90
14409;DHT22;7289;50.706;4.992;2023-07-31T03:34:29;18.10;99.90
14409;DHT22;7289;50.706;4.992;2023-07-31T03:36:59;18.00;99.90
14409;DHT22;7289;50.706;4.992;2023-07-31T03:39:27;18.10;99.90
14409;DHT22;7289;50.706;4.992;2023-07-31T03:41:55;18.20;99.90
14409;DHT22;7289;50.706;4.992;2023-07-31T03:44:25;18.20;99.90
14409;DHT22;7289;50.706;4.992;2023-07-31T03:46:53;18.10;99.90
14409;DHT22;7289;50.706;4.992;2023-07-31T03:49:22;18.20;99.90
14409;DHT22;7289;50.706;4.992;2023-07-31T03:51:50;18.20;99.90
14409;DHT22;7289;50.706;4.992;2023-07-31T03:54:18;18.20;99.90
14409;DHT22;7289;50.706;4.992;2023-07-31T03:56:47;18.20;99.90
14409;DHT22;7289;50.706;4.992;2023-07-31T03:59:15;18.20;99.90
14409;DHT22;7289;50.706;4.992;2023-07-31T04:01:45;18.20;99.90
14409;DHT22;7289;50.706;4.992;2023-07-31T04:04:13;18.10;99.90
14409;DHT22;7289;50.706;4.992;2023-07-31T04:06:42;18.20;99.90
14409;DHT22;7289;50.706;4.992;2023-07-31T04:09:10;18.10;99.90
14409;DHT22;7289;50.706;4.992;2023-07-31T04:11:38;18.10;99.90
14409;DHT22;7289;50.706;4.992;2023-07-31T04:14:07;18.10;99.90
14409;DHT22;7289;50.706;4.992;2023-07-31T04:16:35;18.10;99.90
14409;DHT22;7289;50.706;4.992;2023-07-31T04:19:05;18.20;99.90
14409;DHT22;7289;50.706;4.992;2023-07-31T04:21:34;18.20;99.90
14409;DHT22;7289;50.706;4.992;2023-07-31T04:24:02;18.10;99.90
14409;DHT22;7289;50.706;4.992;2023-07-31T04:26:31;18.10;99.90
14409;DHT22;7289;50.706;4.992;2023-07-31T04:28:59;18.10;99.90
14409;DHT22;7289;50.706;4.992;2023-07-31T04:31:27;18.10;99.90
14409;DHT22;7289;50.706;4.992;2023-07-31T04:33:56;18.10;99.90
14409;DHT22;7289;50.706;4.992;2023-07-31T04:36:25;18.20;99.90
14409;DHT22;7289;50.706;4.992;2023-07-31T04:38:54;18.20;99.90
14409;DHT22;7289;50.706;4.992;2023-07-31T04:41:22;18.20;99.90
14409;DHT22;7289;50.706;4.992;2023-07-31T04:43:51;18.30;99.90
14409;DHT22;7289;50.706;4.992;2023-07-31T04:46:19;18.20;99.90
14409;DHT22;7289;50.706;4.992;2023-07-31T04:48:48;18.30;99.90
14409;DHT22;7289;50.706;4.992;2023-07-31T04:51:16;18.30;99.90
14409;DHT22;7289;50.706;4.992;2023-07-31T04:53:46;18.40;99.90
14409;DHT22;7289;50.706;4.992;2023-07-31T04:56:14;18.40;99.90
14409;DHT22;7289;50.706;4.992;2023-07-31T04:58:43;18.40;99.90
14409;DHT22;7289;50.706;4.992;2023-07-31T05:01:11;18.40;99.90
14409;DHT22;7289;50.706;4.992;2023-07-31T05:03:39;18.50;99.90
14409;DHT22;7289;50.706;4.992;2023-07-31T05:06:08;18.50;99.90
14409;DHT22;7289;50.706;4.992;2023-07-31T05:08:36;18.50;99.90
14409;DHT22;7289;50.706;4.992;2023-07-31T05:11:06;18.50;99.90
14409;DHT22;7289;50.706;4.992;2023-07-31T05:13:34;18.40;99.90
14409;DHT22;7289;50.706;4.992;2023-07-31T05:16:03;18.40;99.90
14409;DHT22;7289;50.706;4.992;2023-07-31T05:18:31;18.50;99.90
14409;DHT22;7289;50.706;4.992;2023-07-31T05:21:00;18.40;99.90
14409;DHT22;7289;50.706;4.992;2023-07-31T05:23:28;18.50;99.90
14409;DHT22;7289;50.706;4.992;2023-07-31T05:26:03;18.60;99.90
14409;DHT22;7289;50.706;4.992;2023-07-31T05:28:34;18.50;99.90
14409;DHT22;7289;50.706;4.992;2023-07-31T05:31:03;18.50;99.90
14409;DHT22;7289;50.706;4.992;2023-07-31T05:33:32;18.40;99.90
14409;DHT22;7289;50.706;4.992;2023-07-31T05:36:00;18.40;99.90
14409;DHT22;7289;50.706;4.992;2023-07-31T05:38:29;18.40;99.90
14409;DHT22;7289;50.706;4.992;2023-07-31T05:40:58;18.50;99.90
14409;DHT22;7289;50.706;4.992;2023-07-31T05:43:29;18.50;99.90
14409;DHT22;7289;50.706;4.992;2023-07-31T05:45:58;18.40;99.90
14409;DHT22;7289;50.706;4.992;2023-07-31T05:48:32;18.30;99.90
14409;DHT22;7289;50.706;4.992;2023-07-31T05:51:01;18.40;99.90
14409;DHT22;7289;50.706;4.992;2023-07-31T05:53:29;18.40;99.90
14409;DHT22;7289;50.706;4.992;2023-07-31T05:55:57;18.30;99.90
14409;DHT22;7289;50.706;4.992;2023-07-31T05:58:26;18.30;99.90
14409;DHT22;7289;50.706;4.992;2023-07-31T06:00:54;18.30;99.90
14409;DHT22;7289;50.706;4.992;2023-07-31T06:03:24;18.30;99.90
14409;DHT22;7289;50.706;4.992;2023-07-31T06:05:52;18.20;99.90
14409;DHT22;7289;50.706;4.992;2023-07-31T06:08:21;18.10;99.90
14409;DHT22;7289;50.706;4.992;2023-07-31T06:10:49;18.10;99.90
14409;DHT22;7289;50.706;4.992;2023-07-31T06:13:17;18.20;99.90
14409;DHT22;7289;50.706;4.992;2023-07-31T06:15:46;18.20;99.90
14409;DHT22;7289;50.706;4.992;2023-07-31T06:18:14;18.20;99.90
14409;DHT22;7289;50.706;4.992;2023-07-31T06:20:44;18.20;99.90
14409;DHT22;7289;50.706;4.992;2023-07-31T06:23:12;18.20;99.90
14409;DHT22;7289;50.706;4.992;2023-07-31T06:25:40;18.30;99.90
14409;DHT22;7289;50.706;4.992;2023-07-31T06:28:08;18.20;99.90
14409;DHT22;7289;50.706;4.992;2023-07-31T06:30:37;18.20;99.90
14409;DHT22;7289;50.706;4.992;2023-07-31T06:33:05;18.10;99.90
14409;DHT22;7289;50.706;4.992;2023-07-31T06:35:33;18.10;99.90
14409;DHT22;7289;50.706;4.992;2023-07-31T06:38:03;18.10;99.90
14409;DHT22;7289;50.706;4.992;2023-07-31T06:40:32;18.10;99.90
14409;DHT22;7289;50.706;4.992;2023-07-31T06:43:00;18.00;99.90
14409;DHT22;7289;50.706;4.992;2023-07-31T06:45:35;18.00;99.90
14409;DHT22;7289;50.706;4.992;2023-07-31T06:48:04;18.10;99.90
14409;DHT22;7289;50.706;4.992;2023-07-31T06:50:32;18.20;99.90
14409;DHT22;7289;50.706;4.992;2023-07-31T06:53:00;18.20;99.90
14409;DHT22;7289;50.706;4.992;2023-07-31T06:55:31;18.30;99.90
14409;DHT22;7289;50.706;4.992;2023-07-31T06:57:59;18.30;99.90
14409;DHT22;7289;50.706;4.992;2023-07-31T07:00:28;18.40;99.90
14409;DHT22;7289;50.706;4.992;2023-07-31T07:02:56;18.50;99.90
14409;DHT22;7289;50.706;4.992;2023-07-31T07:05:25;18.50;99.90
14409;DHT22;7289;50.706;4.992;2023-07-31T07:07:53;18.50;99.90
14409;DHT22;7289;50.706;4.992;2023-07-31T07:10:22;18.50;99.90
14409;DHT22;7289;50.706;4.992;2023-07-31T07:12:53;18.60;99.90
14409;DHT22;7289;50.706;4.992;2023-07-31T07:15:22;18.70;99.90
14409;DHT22;7289;50.706;4.992;2023-07-31T07:17:50;18.70;99.90
14409;DHT22;7289;50.706;4.992;2023-07-31T07:20:19;18.80;99.90
14409;DHT22;7289;50.706;4.992;2023-07-31T07:22:47;18.80;99.90
14409;DHT22;7289;50.706;4.992;2023-07-31T07:25:16;18.90;99.90
14409;DHT22;7289;50.706;4.992;2023-07-31T07:27:44;19.00;99.90
14409;DHT22;7289;50.706;4.992;2023-07-31T07:30:14;19.30;99.90
14409;DHT22;7289;50.706;4.992;2023-07-31T07:32:42;19.30;99.90
14409;DHT22;7289;50.706;4.992;2023-07-31T07:35:11;19.20;99.90
14409;DHT22;7289;50.706;4.992;2023-07-31T07:37:40;19.20;99.90
14409;DHT22;7289;50.706;4.992;2023-07-31T07:40:09;19.20;99.90
14409;DHT22;7289;50.706;4.992;2023-07-31T07:42:37;19.20;99.90
14409;DHT22;7289;50.706;4.992;2023-07-31T07:45:06;19.10;99.90
14409;DHT22;7289;50.706;4.992;2023-07-31T07:47:37;19.20;99.90
14409;DHT22;7289;50.706;4.992;2023-07-31T07:50:07;19.20;99.90
14409;DHT22;7289;50.706;4.992;2023-07-31T07:52:36;19.20;99.90
14409;DHT22;7289;50.706;4.992;2023-07-31T07:55:05;19.10;99.90
14409;DHT22;7289;50.706;4.992;2023-07-31T07:57:33;19.00;99.90
14409;DHT22;7289;50.706;4.992;2023-07-31T08:00:02;19.10;99.90
14409;DHT22;7289;50.706;4.992;2023-07-31T08:02:41;19.20;99.90
14409;DHT22;7289;50.706;4.992;2023-07-31T08:05:09;19.40;99.90
14409;DHT22;7289;50.706;4.992;2023-07-31T08:07:38;19.20;99.90
14409;DHT22;7289;50.706;4.992;2023-07-31T08:10:07;19.50;99.90
14409;DHT22;7289;50.706;4.992;2023-07-31T08:12:35;19.40;99.90
14409;DHT22;7289;50.706;4.992;2023-07-31T08:15:04;19.50;99.90
14409;DHT22;7289;50.706;4.992;2023-07-31T08:17:33;19.60;99.90
14409;DHT22;7289;50.706;4.992;2023-07-31T08:20:03;19.70;99.90
14409;DHT22;7289;50.706;4.992;2023-07-31T08:22:31;19.50;99.90
14409;DHT22;7289;50.706;4.992;2023-07-31T08:25:00;19.50;99.90
14409;DHT22;7289;50.706;4.992;2023-07-31T08:27:28;19.30;99.90
14409;DHT22;7289;50.706;4.992;2023-07-31T08:29:56;19.30;99.90
14409;DHT22;7289;50.706;4.992;2023-07-31T08:32:25;19.30;99.90
14409;DHT22;7289;50.706;4.992;2023-07-31T08:34:53;19.60;99.90
14409;DHT22;7289;50.706;4.992;2023-07-31T08:37:23;19.90;99.90
14409;DHT22;7289;50.706;4.992;2023-07-31T08:39:51;19.90;99.90
14409;DHT22;7289;50.706;4.992;2023-07-31T08:42:20;19.90;99.90
14409;DHT22;7289;50.706;4.992;2023-07-31T08:44:49;20.00;99.90
14409;DHT22;7289;50.706;4.992;2023-07-31T08:47:19;20.20;99.90
14409;DHT22;7289;50.706;4.992;2023-07-31T08:49:47;20.30;99.90
14409;DHT22;7289;50.706;4.992;2023-07-31T08:52:16;20.20;99.90
14409;DHT22;7289;50.706;4.992;2023-07-31T08:54:46;20.10;99.90
14409;DHT22;7289;50.706;4.992;2023-07-31T08:57:14;20.10;99.90
14409;DHT22;7289;50.706;4.992;2023-07-31T08:59:44;20.20;99.90
14409;DHT22;7289;50.706;4.992;2023-07-31T09:02:15;20.20;99.90
14409;DHT22;7289;50.706;4.992;2023-07-31T09:04:43;20.20;99.90
14409;DHT22;7289;50.706;4.992;2023-07-31T09:07:12;20.30;99.90
14409;DHT22;7289;50.706;4.992;2023-07-31T09:09:42;20.30;99.90
14409;DHT22;7289;50.706;4.992;2023-07-31T09:12:12;20.40;99.90
14409;DHT22;7289;50.706;4.992;2023-07-31T09:14:41;20.40;99.90
14409;DHT22;7289;50.706;4.992;2023-07-31T09:17:10;20.30;99.90
14409;DHT22;7289;50.706;4.992;2023-07-31T09:19:39;20.60;99.90
14409;DHT22;7289;50.706;4.992;2023-07-31T09:22:07;20.80;99.90
14409;DHT22;7289;50.706;4.992;2023-07-31T09:24:36;20.70;99.90
14409;DHT22;7289;50.706;4.992;2023-07-31T09:27:06;20.80;99.90
14409;DHT22;7289;50.706;4.992;2023-07-31T09:29:35;20.50;99.90
14409;DHT22;7289;50.706;4.992;2023-07-31T09:32:04;20.40;99.90
14409;DHT22;7289;50.706;4.992;2023-07-31T09:34:38;20.40;99.90
14409;DHT22;7289;50.706;4.992;2023-07-31T09:37:07;20.30;99.90
14409;DHT22;7289;50.706;4.992;2023-07-31T09:39:46;20.30;99.90
14409;DHT22;7289;50.706;4.992;2023-07-31T09:42:24;20.20;99.90
14409;DHT22;7289;50.706;4.992;2023-07-31T09:44:57;20.20;99.90
14409;DHT22;7289;50.706;4.992;2023-07-31T09:47:35;20.30;99.90
14409;DHT22;7289;50.706;4.992;2023-07-31T09:50:07;20.20;99.90
14409;DHT22;7289;50.706;4.992;2023-07-31T09:52:38;20.40;99.90
14409;DHT22;7289;50.706;4.992;2023-07-31T09:55:07;20.70;99.90
14409;DHT22;7289;50.706;4.992;2023-07-31T09:57:39;20.90;99.90
14409;DHT22;7289;50.706;4.992;2023-07-31T10:00:10;21.10;99.90
14409;DHT22;7289;50.706;4.992;2023-07-31T10:02:39;21.40;99.90
14409;DHT22;7289;50.706;4.992;2023-07-31T10:05:08;21.60;99.90
14409;DHT22;7289;50.706;4.992;2023-07-31T10:07:37;21.50;99.90
14409;DHT22;7289;50.706;4.992;2023-07-31T10:10:08;21.40;99.90
14409;DHT22;7289;50.706;4.992;2023-07-31T10:12:37;21.30;99.90
14409;DHT22;7289;50.706;4.992;2023-07-31T10:15:06;21.40;99.90
14409;DHT22;7289;50.706;4.992;2023-07-31T10:17:38;21.40;99.90
14409;DHT22;7289;50.706;4.992;2023-07-31T10:20:07;21.40;99.90
14409;DHT22;7289;50.706;4.992;2023-07-31T10:22:36;21.30;99.90
14409;DHT22;7289;50.706;4.992;2023-07-31T10:25:08;21.40;99.90
14409;DHT22;7289;50.706;4.992;2023-07-31T10:27:38;21.40;99.90
14409;DHT22;7289;50.706;4.992;2023-07-31T10:30:10;21.40;99.90
14409;DHT22;7289;50.706;4.992;2023-07-31T10:32:41;21.60;99.90
14409;DHT22;7289;50.706;4.992;2023-07-31T10:35:11;21.80;99.90
14409;DHT22;7289;50.706;4.992;2023-07-31T10:37:41;21.90;99.90
14409;DHT22;7289;50.706;4.992;2023-07-31T10:40:12;22.00;99.90
14409;DHT22;7289;50.706;4.992;2023-07-31T10:42:46;22.10;99.90
14409;DHT22;7289;50.706;4.992;2023-07-31T10:45:25;22.10;99.90
14409;DHT22;7289;50.706;4.992;2023-07-31T10:48:03;22.30;99.90
14409;DHT22;7289;50.706;4.992;2023-07-31T10:50:33;22.20;99.90
14409;DHT22;7289;50.706;4.992;2023-07-31T10:53:04;22.50;99.90
14409;DHT22;7289;50.706;4.992;2023-07-31T10:55:40;22.50;99.90
14409;DHT22;7289;50.706;4.992;2023-07-31T10:58:10;22.40;99.90
14409;DHT22;7289;50.706;4.992;2023-07-31T11:00:39;22.40;99.90
14409;DHT22;7289;50.706;4.992;2023-07-31T11:03:14;22.40;99.90
14409;DHT22;7289;50.706;4.992;2023-07-31T11:05:55;22.40;99.90
14409;DHT22;7289;50.706;4.992;2023-07-31T11:08:28;22.20;99.90
14409;DHT22;7289;50.706;4.992;2023-07-31T11:11:07;22.00;99.90
14409;DHT22;7289;50.706;4.992;2023-07-31T11:13:43;21.80;99.90
14409;DHT22;7289;50.706;4.992;2023-07-31T11:16:13;21.40;99.90
14409;DHT22;7289;50.706;4.992;2023-07-31T11:18:44;21.10;99.90
14409;DHT22;7289;50.706;4.992;2023-07-31T11:21:13;21.00;99.90
14409;DHT22;7289;50.706;4.992;2023-07-31T11:23:45;20.90;99.90
14409;DHT22;7289;50.706;4.992;2023-07-31T11:26:14;21.10;99.90
14409;DHT22;7289;50.706;4.992;2023-07-31T11:28:45;21.40;99.90
14409;DHT22;7289;50.706;4.992;2023-07-31T11:31:14;21.90;99.90
14409;DHT22;7289;50.706;4.992;2023-07-31T11:33:44;22.30;99.90
14409;DHT22;7289;50.706;4.992;2023-07-31T11:36:15;22.40;99.90
14409;DHT22;7289;50.706;4.992;2023-07-31T11:38:44;22.50;99.90
14409;DHT22;7289;50.706;4.992;2023-07-31T11:41:14;22.40;99.90
14409;DHT22;7289;50.706;4.992;2023-07-31T11:43:43;22.20;99.90
14409;DHT22;7289;50.706;4.992;2023-07-31T11:46:11;22.20;99.90
14409;DHT22;7289;50.706;4.992;2023-07-31T11:48:44;22.10;99.90
14409;DHT22;7289;50.706;4.992;2023-07-31T11:51:13;22.20;99.90
14409;DHT22;7289;50.706;4.992;2023-07-31T11:53:44;22.10;99.90
14409;DHT22;7289;50.706;4.992;2023-07-31T11:56:16;22.00;99.90
14409;DHT22;7289;50.706;4.992;2023-07-31T11:58:46;22.00;99.90
14409;DHT22;7289;50.706;4.992;2023-07-31T12:01:15;22.20;99.90
14409;DHT22;7289;50.706;4.992;2023-07-31T12:03:47;22.60;99.90
14409;DHT22;7289;50.706;4.992;2023-07-31T12:06:16;22.70;99.90
14409;DHT22;7289;50.706;4.992;2023-07-31T12:08:44;23.00;99.90
14409;DHT22;7289;50.706;4.992;2023-07-31T12:11:13;23.00;99.60
14409;DHT22;7289;50.706;4.992;2023-07-31T12:13:42;22.90;99.70
14409;DHT22;7289;50.706;4.992;2023-07-31T12:16:10;22.70;99.90
14409;DHT22;7289;50.706;4.992;2023-07-31T12:18:39;22.60;99.80
14409;DHT22;7289;50.706;4.992;2023-07-31T12:21:09;22.70;99.90
14409;DHT22;7289;50.706;4.992;2023-07-31T12:23:38;22.80;99.90
14409;DHT22;7289;50.706;4.992;2023-07-31T12:26:11;22.80;99.90
14409;DHT22;7289;50.706;4.992;2023-07-31T12:28:41;23.00;99.80
14409;DHT22;7289;50.706;4.992;2023-07-31T12:31:11;23.30;99.50
14409;DHT22;7289;50.706;4.992;2023-07-31T12:33:41;23.50;98.90
14409;DHT22;7289;50.706;4.992;2023-07-31T12:36:12;23.60;99.20
14409;DHT22;7289;50.706;4.992;2023-07-31T12:38:41;23.90;98.70
14409;DHT22;7289;50.706;4.992;2023-07-31T12:41:11;23.90;98.40
14409;DHT22;7289;50.706;4.992;2023-07-31T12:43:41;23.80;98.70
14409;DHT22;7289;50.706;4.992;2023-07-31T12:46:10;23.60;98.70
14409;DHT22;7289;50.706;4.992;2023-07-31T12:48:39;23.50;98.60
14409;DHT22;7289;50.706;4.992;2023-07-31T12:51:07;23.10;99.00
14409;DHT22;7289;50.706;4.992;2023-07-31T12:53:37;22.80;99.60
14409;DHT22;7289;50.706;4.992;2023-07-31T12:56:05;22.60;99.90
14409;DHT22;7289;50.706;4.992;2023-07-31T12:58:34;22.30;99.90
14409;DHT22;7289;50.706;4.992;2023-07-31T13:01:02;22.30;99.90
14409;DHT22;7289;50.706;4.992;2023-07-31T13:03:30;22.10;99.90
14409;DHT22;7289;50.706;4.992;2023-07-31T13:05:59;21.90;99.90
14409;DHT22;7289;50.706;4.992;2023-07-31T13:08:27;21.80;99.90
14409;DHT22;7289;50.706;4.992;2023-07-31T13:10:57;21.90;99.90
14409;DHT22;7289;50.706;4.992;2023-07-31T13:13:25;22.00;99.90
14409;DHT22;7289;50.706;4.992;2023-07-31T13:15:56;22.00;99.90
14409;DHT22;7289;50.706;4.992;2023-07-31T13:18:24;22.10;99.90
14409;DHT22;7289;50.706;4.992;2023-07-31T13:20:53;22.30;99.90
14409;DHT22;7289;50.706;4.992;2023-07-31T13:23:21;22.50;99.90
14409;DHT22;7289;50.706;4.992;2023-07-31T13:25:49;22.60;99.90
14409;DHT22;7289;50.706;4.992;2023-07-31T13:28:19;22.60;99.90
14409;DHT22;7289;50.706;4.992;2023-07-31T13:30:47;22.50;99.90
14409;DHT22;7289;50.706;4.992;2023-07-31T13:33:16;22.50;99.90
14409;DHT22;7289;50.706;4.992;2023-07-31T13:36:02;22.30;99.90
14409;DHT22;7289;50.706;4.992;2023-07-31T13:38:31;22.00;99.90
14409;DHT22;7289;50.706;4.992;2023-07-31T13:40:59;21.80;99.90
14409;DHT22;7289;50.706;4.992;2023-07-31T13:43:29;21.70;99.90
14409;DHT22;7289;50.706;4.992;2023-07-31T13:45:57;21.60;99.90
14409;DHT22;7289;50.706;4.992;2023-07-31T13:48:30;21.60;99.90
14409;DHT22;7289;50.706;4.992;2023-07-31T13:50:58;21.50;99.90
14409;DHT22;7289;50.706;4.992;2023-07-31T13:53:28;21.30;99.90
14409;DHT22;7289;50.706;4.992;2023-07-31T13:55:56;21.20;99.90
14409;DHT22;7289;50.706;4.992;2023-07-31T13:58:24;21.10;99.90
14409;DHT22;7289;50.706;4.992;2023-07-31T14:00:54;20.90;99.90
14409;DHT22;7289;50.706;4.992;2023-07-31T14:03:23;20.80;99.90
14409;DHT22;7289;50.706;4.992;2023-07-31T14:05:51;20.60;99.90
14409;DHT22;7289;50.706;4.992;2023-07-31T14:08:20;20.50;99.90
14409;DHT22;7289;50.706;4.992;2023-07-31T14:10:48;20.40;99.90
14409;DHT22;7289;50.706;4.992;2023-07-31T14:13:17;20.40;99.90
14409;DHT22;7289;50.706;4.992;2023-07-31T14:15:45;20.30;99.90
14409;DHT22;7289;50.706;4.992;2023-07-31T14:18:15;20.30;99.90
14409;DHT22;7289;50.706;4.992;2023-07-31T14:20:43;20.20;99.90
14409;DHT22;7289;50.706;4.992;2023-07-31T14:23:12;20.20;99.90
14409;DHT22;7289;50.706;4.992;2023-07-31T14:25:40;20.20;99.90
14409;DHT22;7289;50.706;4.992;2023-07-31T14:28:08;20.20;99.90
14409;DHT22;7289;50.706;4.992;2023-07-31T14:30:37;20.20;99.90
14409;DHT22;7289;50.706;4.992;2023-07-31T14:33:06;20.10;99.90
14409;DHT22;7289;50.706;4.992;2023-07-31T14:35:35;20.20;99.90
14409;DHT22;7289;50.706;4.992;2023-07-31T14:38:04;20.00;99.90
14409;DHT22;7289;50.706;4.992;2023-07-31T14:40:32;20.00;99.90
14409;DHT22;7289;50.706;4.992;2023-07-31T14:43:00;19.90;99.90
14409;DHT22;7289;50.706;4.992;2023-07-31T14:45:29;19.90;99.90
14409;DHT22;7289;50.706;4.992;2023-07-31T14:47:57;19.90;99.90
14409;DHT22;7289;50.706;4.992;2023-07-31T14:50:26;19.80;99.90
14409;DHT22;7289;50.706;4.992;2023-07-31T14:52:58;19.70;99.90
14409;DHT22;7289;50.706;4.992;2023-07-31T14:55:26;19.70;99.90
14409;DHT22;7289;50.706;4.992;2023-07-31T14:57:55;19.70;99.90
14409;DHT22;7289;50.706;4.992;2023-07-31T15:00:23;19.80;99.90
14409;DHT22;7289;50.706;4.992;2023-07-31T15:02:53;19.80;99.90
14409;DHT22;7289;50.706;4.992;2023-07-31T15:05:21;19.90;99.90
14409;DHT22;7289;50.706;4.992;2023-07-31T15:07:50;20.00;99.90
14409;DHT22;7289;50.706;4.992;2023-07-31T15:10:20;20.10;99.90
14409;DHT22;7289;50.706;4.992;2023-07-31T15:12:49;20.10;99.90
14409;DHT22;7289;50.706;4.992;2023-07-31T15:15:17;20.00;99.90
14409;DHT22;7289;50.706;4.992;2023-07-31T15:17:45;20.00;99.90
14409;DHT22;7289;50.706;4.992;2023-07-31T15:20:14;19.80;99.90
14409;DHT22;7289;50.706;4.992;2023-07-31T15:22:42;19.80;99.90
14409;DHT22;7289;50.706;4.992;2023-07-31T15:25:11;19.90;99.90
14409;DHT22;7289;50.706;4.992;2023-07-31T15:27:40;20.00;99.90
14409;DHT22;7289;50.706;4.992;2023-07-31T15:30:09;20.00;99.90
14409;DHT22;7289;50.706;4.992;2023-07-31T15:32:38;20.10;99.90
14409;DHT22;7289;50.706;4.992;2023-07-31T15:35:07;19.90;99.90
14409;DHT22;7289;50.706;4.992;2023-07-31T15:37:39;19.90;99.90
14409;DHT22;7289;50.706;4.992;2023-07-31T15:40:08;20.10;99.90
14409;DHT22;7289;50.706;4.992;2023-07-31T15:42:37;20.20;99.90
14409;DHT22;7289;50.706;4.992;2023-07-31T15:45:09;20.30;99.90
14409;DHT22;7289;50.706;4.992;2023-07-31T15:47:39;20.20;99.90
14409;DHT22;7289;50.706;4.992;2023-07-31T15:50:08;20.10;99.90
14409;DHT22;7289;50.706;4.992;2023-07-31T15:52:36;20.10;99.90
14409;DHT22;7289;50.706;4.992;2023-07-31T15:55:05;20.10;99.90
14409;DHT22;7289;50.706;4.992;2023-07-31T15:57:34;20.10;99.90
14409;DHT22;7289;50.706;4.992;2023-07-31T16:00:03;20.00;99.90
14409;DHT22;7289;50.706;4.992;2023-07-31T16:02:35;19.80;99.90